sensor_id;sensor_type;location;lat;lon;timestamp;temperature;humidity
14006;DHT22;7078;51.542;7.314;2022-10-16T00:00:18;13.60;99.90
14006;DHT22;7078;51.542;7.314;2022-10-16T00:02:44;13.60;99.90
14006;DHT22;7078;51.542;7.314;2022-10-16T00:05:09;13.50;99.90
14006;DHT22;7078;51.542;7.314;2022-10-16T00:07:35;13.50;99.90
14006;DHT22;7078;51.542;7.314;2022-10-16T00:10:00;13.50;99.90
14006;DHT22;7078;51.542;7.314;2022-10-16T00:12:26;13.40;99.90
14006;DHT22;7078;51.542;7.314;2022-10-16T00:14:51;13.40;99.90
14006;DHT22;7078;51.542;7.314;2022-10-16T00:17:17;13.40;99.90
14006;DHT22;7078;51.542;7.314;2022-10-16T00:19:42;13.30;99.90
14006;DHT22;7078;51.542;7.314;2022-10-16T00:22:08;13.30;99.90
14006;DHT22;7078;51.542;7.314;2022-10-16T00:24:34;13.40;99.90
14006;DHT22;7078;51.542;7.314;2022-10-16T00:26:59;13.30;99.90
14006;DHT22;7078;51.542;7.314;2022-10-16T00:29:25;13.30;99.90
14006;DHT22;7078;51.542;7.314;2022-10-16T00:31:50;13.30;99.90
14006;DHT22;7078;51.542;7.314;2022-10-16T00:34:16;13.30;99.90
14006;DHT22;7078;51.542;7.314;2022-10-16T00:36:41;13.30;99.90
14006;DHT22;7078;51.542;7.314;2022-10-16T00:39:07;13.30;99.90
14006;DHT22;7078;51.542;7.314;2022-10-16T00:41:33;13.30;99.90
14006;DHT22;7078;51.542;7.314;2022-10-16T00:44:01;13.30;99.90
14006;DHT22;7078;51.542;7.314;2022-10-16T00:46:41;13.30;99.90
14006;DHT22;7078;51.542;7.314;2022-10-16T00:49:15;13.30;99.90
14006;DHT22;7078;51.542;7.314;2022-10-16T00:51:43;13.30;99.90
14006;DHT22;7078;51.542;7.314;2022-10-16T00:54:14;13.40;99.90
14006;DHT22;7078;51.542;7.314;2022-10-16T00:56:41;13.40;99.90
14006;DHT22;7078;51.542;7.314;2022-10-16T00:59:16;13.40;99.90
14006;DHT22;7078;51.542;7.314;2022-10-16T01:01:44;13.40;99.90
14006;DHT22;7078;51.542;7.314;2022-10-16T01:04:10;13.40;99.90
14006;DHT22;7078;51.542;7.314;2022-10-16T01:06:43;13.40;99.90
14006;DHT22;7078;51.542;7.314;2022-10-16T01:14:26;13.50;99.90
14006;DHT22;7078;51.542;7.314;2022-10-16T01:16:59;13.50;99.90
14006;DHT22;7078;51.542;7.314;2022-10-16T01:22:06;13.50;99.90
14006;DHT22;7078;51.542;7.314;2022-10-16T01:24:41;13.50;99.90
14006;DHT22;7078;51.542;7.314;2022-10-16T01:27:09;13.50;99.90
14006;DHT22;7078;51.542;7.314;2022-10-16T01:30:30;13.50;99.90
14006;DHT22;7078;51.542;7.314;2022-10-16T01:32:57;13.50;99.90
14006;DHT22;7078;51.542;7.314;2022-10-16T01:35:38;13.50;99.90
14006;DHT22;7078;51.542;7.314;2022-10-16T01:38:17;13.50;99.90
14006;DHT22;7078;51.542;7.314;2022-10-16T01:40:50;13.50;99.90
14006;DHT22;7078;51.542;7.314;2022-10-16T01:43:20;13.50;99.90
14006;DHT22;7078;51.542;7.314;2022-10-16T01:45:48;13.60;99.90
14006;DHT22;7078;51.542;7.314;2022-10-16T01:48:18;13.50;99.90
14006;DHT22;7078;51.542;7.314;2022-10-16T01:50:57;13.50;99.90
14006;DHT22;7078;51.542;7.314;2022-10-16T01:53:24;13.50;99.90
14006;DHT22;7078;51.542;7.314;2022-10-16T01:55:52;13.50;99.90
14006;DHT22;7078;51.542;7.314;2022-10-16T01:58:19;13.50;99.90
14006;DHT22;7078;51.542;7.314;2022-10-16T02:00:46;13.50;99.90
14006;DHT22;7078;51.542;7.314;2022-10-16T02:03:15;13.50;99.90
14006;DHT22;7078;51.542;7.314;2022-10-16T02:05:49;13.50;99.90
14006;DHT22;7078;51.542;7.314;2022-10-16T02:08:15;13.50;99.90
14006;DHT22;7078;51.542;7.314;2022-10-16T02:10:41;13.50;99.90
14006;DHT22;7078;51.542;7.314;2022-10-16T02:13:32;13.50;99.90
14006;DHT22;7078;51.542;7.314;2022-10-16T02:15:58;13.50;99.90
14006;DHT22;7078;51.542;7.314;2022-10-16T02:18:25;13.50;99.90
14006;DHT22;7078;51.542;7.314;2022-10-16T02:23:49;13.50;99.90
14006;DHT22;7078;51.542;7.314;2022-10-16T02:26:38;13.50;99.90
14006;DHT22;7078;51.542;7.314;2022-10-16T02:29:10;13.50;99.90
14006;DHT22;7078;51.542;7.314;2022-10-16T02:31:41;13.50;99.90
14006;DHT22;7078;51.542;7.314;2022-10-16T02:34:09;13.50;99.90
14006;DHT22;7078;51.542;7.314;2022-10-16T02:36:37;13.50;99.90
14006;DHT22;7078;51.542;7.314;2022-10-16T02:39:04;13.50;99.90
14006;DHT22;7078;51.542;7.314;2022-10-16T02:41:31;13.50;99.90
14006;DHT22;7078;51.542;7.314;2022-10-16T02:43:57;13.50;99.90
14006;DHT22;7078;51.542;7.314;2022-10-16T02:46:22;13.50;99.90
14006;DHT22;7078;51.542;7.314;2022-10-16T02:48:48;13.60;99.90
14006;DHT22;7078;51.542;7.314;2022-10-16T02:51:13;13.60;99.90
14006;DHT22;7078;51.542;7.314;2022-10-16T02:53:39;13.60;99.90
14006;DHT22;7078;51.542;7.314;2022-10-16T02:56:04;13.60;99.90
14006;DHT22;7078;51.542;7.314;2022-10-16T02:58:30;13.60;99.90
14006;DHT22;7078;51.542;7.314;2022-10-16T03:00:56;13.60;99.90
14006;DHT22;7078;51.542;7.314;2022-10-16T03:03:21;13.60;99.90
14006;DHT22;7078;51.542;7.314;2022-10-16T03:05:47;13.60;99.90
14006;DHT22;7078;51.542;7.314;2022-10-16T03:08:13;13.60;99.90
14006;DHT22;7078;51.542;7.314;2022-10-16T03:10:38;13.60;99.90
14006;DHT22;7078;51.542;7.314;2022-10-16T03:13:04;13.60;99.90
14006;DHT22;7078;51.542;7.314;2022-10-16T03:15:30;13.60;99.90
14006;DHT22;7078;51.542;7.314;2022-10-16T03:17:58;13.60;99.90
14006;DHT22;7078;51.542;7.314;2022-10-16T03:20:24;13.60;99.90
14006;DHT22;7078;51.542;7.314;2022-10-16T03:22:49;13.60;99.90
14006;DHT22;7078;51.542;7.314;2022-10-16T03:25:15;13.50;99.90
14006;DHT22;7078;51.542;7.314;2022-10-16T03:27:40;13.50;99.90
14006;DHT22;7078;51.542;7.314;2022-10-16T03:30:06;13.50;99.90
14006;DHT22;7078;51.542;7.314;2022-10-16T03:32:32;13.50;99.90
14006;DHT22;7078;51.542;7.314;2022-10-16T03:34:58;13.50;99.90
14006;DHT22;7078;51.542;7.314;2022-10-16T03:37:24;13.50;99.90
14006;DHT22;7078;51.542;7.314;2022-10-16T03:39:49;13.50;99.90
14006;DHT22;7078;51.542;7.314;2022-10-16T03:42:15;13.50;99.90
14006;DHT22;7078;51.542;7.314;2022-10-16T03:44:40;13.50;99.90
14006;DHT22;7078;51.542;7.314;2022-10-16T03:47:06;13.40;99.90
14006;DHT22;7078;51.542;7.314;2022-10-16T03:49:31;13.40;99.90
14006;DHT22;7078;51.542;7.314;2022-10-16T03:51:57;13.40;99.90
14006;DHT22;7078;51.542;7.314;2022-10-16T03:54:22;13.40;99.90
14006;DHT22;7078;51.542;7.314;2022-10-16T03:56:48;13.40;99.90
14006;DHT22;7078;51.542;7.314;2022-10-16T03:59:14;13.30;99.90
14006;DHT22;7078;51.542;7.314;2022-10-16T04:01:40;13.40;99.90
14006;DHT22;7078;51.542;7.314;2022-10-16T04:04:05;13.30;99.90
14006;DHT22;7078;51.542;7.314;2022-10-16T04:06:31;13.20;99.90
14006;DHT22;7078;51.542;7.314;2022-10-16T04:08:56;13.20;99.90
14006;DHT22;7078;51.542;7.314;2022-10-16T04:11:22;13.10;99.90
14006;DHT22;7078;51.542;7.314;2022-10-16T04:13:48;13.10;99.90
14006;DHT22;7078;51.542;7.314;2022-10-16T04:16:13;13.20;99.90
14006;DHT22;7078;51.542;7.314;2022-10-16T04:18:39;13.20;99.90
14006;DHT22;7078;51.542;7.314;2022-10-16T04:21:06;13.10;99.90
14006;DHT22;7078;51.542;7.314;2022-10-16T04:23:32;13.20;99.90
14006;DHT22;7078;51.542;7.314;2022-10-16T04:25:57;13.20;99.90
14006;DHT22;7078;51.542;7.314;2022-10-16T04:28:23;13.20;99.90
14006;DHT22;7078;51.542;7.314;2022-10-16T04:30:48;13.30;99.90
14006;DHT22;7078;51.542;7.314;2022-10-16T04:33:14;13.30;99.90
14006;DHT22;7078;51.542;7.314;2022-10-16T04:35:39;13.30;99.90
14006;DHT22;7078;51.542;7.314;2022-10-16T04:38:05;13.30;99.90
14006;DHT22;7078;51.542;7.314;2022-10-16T04:40:30;13.30;99.90
14006;DHT22;7078;51.542;7.314;2022-10-16T04:43:04;13.30;99.90
14006;DHT22;7078;51.542;7.314;2022-10-16T04:45:30;13.30;99.90
14006;DHT22;7078;51.542;7.314;2022-10-16T04:47:57;13.30;99.90
14006;DHT22;7078;51.542;7.314;2022-10-16T04:50:23;13.30;99.90
14006;DHT22;7078;51.542;7.314;2022-10-16T04:52:48;13.30;99.90
14006;DHT22;7078;51.542;7.314;2022-10-16T04:55:14;13.30;99.90
14006;DHT22;7078;51.542;7.314;2022-10-16T04:57:40;13.30;99.90
14006;DHT22;7078;51.542;7.314;2022-10-16T05:00:07;13.30;99.90
14006;DHT22;7078;51.542;7.314;2022-10-16T05:02:33;13.30;99.90
14006;DHT22;7078;51.542;7.314;2022-10-16T05:04:59;13.30;99.90
14006;DHT22;7078;51.542;7.314;2022-10-16T05:07:24;13.30;99.90
14006;DHT22;7078;51.542;7.314;2022-10-16T05:09:50;13.30;99.90
14006;DHT22;7078;51.542;7.314;2022-10-16T05:12:15;13.30;99.90
14006;DHT22;7078;51.542;7.314;2022-10-16T05:14:41;13.30;99.90
14006;DHT22;7078;51.542;7.314;2022-10-16T05:17:06;13.30;99.90
14006;DHT22;7078;51.542;7.314;2022-10-16T05:19:32;13.30;99.90
14006;DHT22;7078;51.542;7.314;2022-10-16T05:21:58;13.40;99.90
14006;DHT22;7078;51.542;7.314;2022-10-16T05:24:23;13.30;99.90
14006;DHT22;7078;51.542;7.314;2022-10-16T05:26:49;13.40;99.90
14006;DHT22;7078;51.542;7.314;2022-10-16T05:29:15;13.40;99.90
14006;DHT22;7078;51.542;7.314;2022-10-16T05:31:40;13.50;99.90
14006;DHT22;7078;51.542;7.314;2022-10-16T05:34:06;13.50;99.90
14006;DHT22;7078;51.542;7.314;2022-10-16T05:36:32;13.60;99.90
14006;DHT22;7078;51.542;7.314;2022-10-16T05:38:57;13.60;99.90
14006;DHT22;7078;51.542;7.314;2022-10-16T05:41:23;13.60;99.90
14006;DHT22;7078;51.542;7.314;2022-10-16T05:43:51;13.50;99.90
14006;DHT22;7078;51.542;7.314;2022-10-16T05:46:16;13.60;99.90
14006;DHT22;7078;51.542;7.314;2022-10-16T05:48:43;13.50;99.90
14006;DHT22;7078;51.542;7.314;2022-10-16T05:51:11;13.50;99.90
14006;DHT22;7078;51.542;7.314;2022-10-16T05:53:38;13.50;99.90
14006;DHT22;7078;51.542;7.314;2022-10-16T05:56:05;13.50;99.90
14006;DHT22;7078;51.542;7.314;2022-10-16T05:58:33;13.50;99.90
14006;DHT22;7078;51.542;7.314;2022-10-16T06:01:01;13.50;99.90
14006;DHT22;7078;51.542;7.314;2022-10-16T06:03:27;13.50;99.90
14006;DHT22;7078;51.542;7.314;2022-10-16T06:05:53;13.50;99.90
14006;DHT22;7078;51.542;7.314;2022-10-16T06:08:21;13.50;99.90
14006;DHT22;7078;51.542;7.314;2022-10-16T06:10:47;13.40;99.90
14006;DHT22;7078;51.542;7.314;2022-10-16T06:13:13;13.50;99.90
14006;DHT22;7078;51.542;7.314;2022-10-16T06:15:41;13.50;99.90
14006;DHT22;7078;51.542;7.314;2022-10-16T06:18:10;13.50;99.90
14006;DHT22;7078;51.542;7.314;2022-10-16T06:20:36;13.50;99.90
14006;DHT22;7078;51.542;7.314;2022-10-16T06:23:02;13.50;99.90
14006;DHT22;7078;51.542;7.314;2022-10-16T06:25:32;13.50;99.90
14006;DHT22;7078;51.542;7.314;2022-10-16T06:27:58;13.50;99.90
14006;DHT22;7078;51.542;7.314;2022-10-16T06:30:23;13.50;99.90
14006;DHT22;7078;51.542;7.314;2022-10-16T06:32:49;13.50;99.90
14006;DHT22;7078;51.542;7.314;2022-10-16T06:35:14;13.40;99.90
14006;DHT22;7078;51.542;7.314;2022-10-16T06:37:40;13.40;99.90
14006;DHT22;7078;51.542;7.314;2022-10-16T06:40:06;13.50;99.90
14006;DHT22;7078;51.542;7.314;2022-10-16T06:42:32;13.50;99.90
14006;DHT22;7078;51.542;7.314;2022-10-16T06:44:57;13.50;99.90
14006;DHT22;7078;51.542;7.314;2022-10-16T06:47:22;13.50;99.90
14006;DHT22;7078;51.542;7.314;2022-10-16T06:49:48;13.50;99.90
14006;DHT22;7078;51.542;7.314;2022-10-16T06:52:14;13.60;99.90
14006;DHT22;7078;51.542;7.314;2022-10-16T06:54:39;13.60;99.90
14006;DHT22;7078;51.542;7.314;2022-10-16T06:57:05;13.70;99.90
14006;DHT22;7078;51.542;7.314;2022-10-16T06:59:30;13.70;99.90
14006;DHT22;7078;51.542;7.314;2022-10-16T07:01:56;13.70;99.90
14006;DHT22;7078;51.542;7.314;2022-10-16T07:04:21;13.80;99.90
14006;DHT22;7078;51.542;7.314;2022-10-16T07:06:47;13.80;99.90
14006;DHT22;7078;51.542;7.314;2022-10-16T07:09:13;13.70;99.90
14006;DHT22;7078;51.542;7.314;2022-10-16T07:11:39;13.90;99.90
14006;DHT22;7078;51.542;7.314;2022-10-16T07:14:09;13.90;99.90
14006;DHT22;7078;51.542;7.314;2022-10-16T07:16:37;13.90;99.90
14006;DHT22;7078;51.542;7.314;2022-10-16T07:19:03;13.90;99.90
14006;DHT22;7078;51.542;7.314;2022-10-16T07:21:31;13.90;99.90
14006;DHT22;7078;51.542;7.314;2022-10-16T07:24:00;14.00;99.90
14006;DHT22;7078;51.542;7.314;2022-10-16T07:26:31;14.10;99.90
14006;DHT22;7078;51.542;7.314;2022-10-16T07:28:58;14.10;99.90
14006;DHT22;7078;51.542;7.314;2022-10-16T07:31:24;14.10;99.90
14006;DHT22;7078;51.542;7.314;2022-10-16T07:33:49;14.10;99.90
14006;DHT22;7078;51.542;7.314;2022-10-16T07:36:17;14.10;99.90
14006;DHT22;7078;51.542;7.314;2022-10-16T07:38:43;14.10;99.90
14006;DHT22;7078;51.542;7.314;2022-10-16T07:41:14;14.10;99.90
14006;DHT22;7078;51.542;7.314;2022-10-16T07:43:44;14.10;99.90
14006;DHT22;7078;51.542;7.314;2022-10-16T07:46:10;14.10;99.90
14006;DHT22;7078;51.542;7.314;2022-10-16T07:48:35;14.20;99.90
14006;DHT22;7078;51.542;7.314;2022-10-16T07:51:03;14.30;99.90
14006;DHT22;7078;51.542;7.314;2022-10-16T07:53:29;14.40;99.90
14006;DHT22;7078;51.542;7.314;2022-10-16T07:55:59;14.50;99.90
14006;DHT22;7078;51.542;7.314;2022-10-16T07:58:25;14.60;99.90
14006;DHT22;7078;51.542;7.314;2022-10-16T08:00:51;14.90;99.90
14006;DHT22;7078;51.542;7.314;2022-10-16T08:03:16;14.90;99.90
14006;DHT22;7078;51.542;7.314;2022-10-16T08:05:41;15.00;99.90
14006;DHT22;7078;51.542;7.314;2022-10-16T08:08:13;15.10;99.90
14006;DHT22;7078;51.542;7.314;2022-10-16T08:10:39;15.20;99.90
14006;DHT22;7078;51.542;7.314;2022-10-16T08:13:04;15.30;99.90
14006;DHT22;7078;51.542;7.314;2022-10-16T08:15:30;15.40;99.90
14006;DHT22;7078;51.542;7.314;2022-10-16T08:18:00;15.50;99.90
14006;DHT22;7078;51.542;7.314;2022-10-16T08:20:27;15.70;99.90
14006;DHT22;7078;51.542;7.314;2022-10-16T08:22:52;15.70;99.90
14006;DHT22;7078;51.542;7.314;2022-10-16T08:25:20;15.70;99.90
14006;DHT22;7078;51.542;7.314;2022-10-16T08:27:46;15.80;99.90
14006;DHT22;7078;51.542;7.314;2022-10-16T08:30:12;15.80;99.90
14006;DHT22;7078;51.542;7.314;2022-10-16T08:32:37;15.90;99.90
14006;DHT22;7078;51.542;7.314;2022-10-16T08:35:03;15.90;99.90
14006;DHT22;7078;51.542;7.314;2022-10-16T08:37:32;16.00;99.90
14006;DHT22;7078;51.542;7.314;2022-10-16T08:39:58;16.10;99.90
14006;DHT22;7078;51.542;7.314;2022-10-16T08:42:56;16.20;99.90
14006;DHT22;7078;51.542;7.314;2022-10-16T08:45:34;16.20;99.90
14006;DHT22;7078;51.542;7.314;2022-10-16T08:50:41;16.30;99.90
14006;DHT22;7078;51.542;7.314;2022-10-16T08:53:14;16.30;99.90
14006;DHT22;7078;51.542;7.314;2022-10-16T08:55:50;16.30;99.90
14006;DHT22;7078;51.542;7.314;2022-10-16T08:58:18;16.40;99.90
14006;DHT22;7078;51.542;7.314;2022-10-16T09:00:55;16.40;99.90
14006;DHT22;7078;51.542;7.314;2022-10-16T09:06:17;16.50;99.90
14006;DHT22;7078;51.542;7.314;2022-10-16T09:20:49;16.80;99.90
14006;DHT22;7078;51.542;7.314;2022-10-16T09:23:26;16.90;99.90
14006;DHT22;7078;51.542;7.314;2022-10-16T09:25:52;16.90;99.90
14006;DHT22;7078;51.542;7.314;2022-10-16T09:28:19;16.90;99.90
14006;DHT22;7078;51.542;7.314;2022-10-16T09:30:45;16.90;99.90
14006;DHT22;7078;51.542;7.314;2022-10-16T09:33:13;16.90;99.90
14006;DHT22;7078;51.542;7.314;2022-10-16T09:35:42;17.00;99.90
14006;DHT22;7078;51.542;7.314;2022-10-16T09:38:09;17.00;99.90
14006;DHT22;7078;51.542;7.314;2022-10-16T09:40:38;17.10;99.90
14006;DHT22;7078;51.542;7.314;2022-10-16T09:44:14;17.20;99.90
14006;DHT22;7078;51.542;7.314;2022-10-16T09:46:40;17.20;99.90
14006;DHT22;7078;51.542;7.314;2022-10-16T09:49:26;17.20;99.90
14006;DHT22;7078;51.542;7.314;2022-10-16T09:52:04;17.10;99.90
14006;DHT22;7078;51.542;7.314;2022-10-16T09:54:30;17.10;99.90
14006;DHT22;7078;51.542;7.314;2022-10-16T09:57:05;17.20;99.90
14006;DHT22;7078;51.542;7.314;2022-10-16T09:59:31;17.30;99.90
14006;DHT22;7078;51.542;7.314;2022-10-16T10:02:01;17.30;99.90
14006;DHT22;7078;51.542;7.314;2022-10-16T10:04:38;17.30;99.90
14006;DHT22;7078;51.542;7.314;2022-10-16T10:07:05;17.40;99.90
14006;DHT22;7078;51.542;7.314;2022-10-16T10:09:36;17.30;99.90
14006;DHT22;7078;51.542;7.314;2022-10-16T10:12:04;17.30;99.90
14006;DHT22;7078;51.542;7.314;2022-10-16T10:17:31;17.30;99.90
14006;DHT22;7078;51.542;7.314;2022-10-16T10:22:45;17.50;99.90
14006;DHT22;7078;51.542;7.314;2022-10-16T10:30:56;17.60;99.90
14006;DHT22;7078;51.542;7.314;2022-10-16T10:36:22;17.80;99.90
14006;DHT22;7078;51.542;7.314;2022-10-16T10:39:01;17.70;99.90
14006;DHT22;7078;51.542;7.314;2022-10-16T10:57:01;17.80;99.90
14006;DHT22;7078;51.542;7.314;2022-10-16T11:07:15;18.00;99.90
14006;DHT22;7078;51.542;7.314;2022-10-16T11:09:53;18.00;99.90
14006;DHT22;7078;51.542;7.314;2022-10-16T11:12:25;17.90;99.90
14006;DHT22;7078;51.542;7.314;2022-10-16T11:15:19;18.10;99.90
14006;DHT22;7078;51.542;7.314;2022-10-16T11:17:53;18.20;99.90
14006;DHT22;7078;51.542;7.314;2022-10-16T11:23:07;18.30;99.90
14006;DHT22;7078;51.542;7.314;2022-10-16T11:25:36;18.30;99.90
14006;DHT22;7078;51.542;7.314;2022-10-16T11:28:42;18.30;99.90
14006;DHT22;7078;51.542;7.314;2022-10-16T11:33:52;18.30;99.90
14006;DHT22;7078;51.542;7.314;2022-10-16T11:41:35;18.00;99.90
14006;DHT22;7078;51.542;7.314;2022-10-16T11:44:42;18.10;99.90
14006;DHT22;7078;51.542;7.314;2022-10-16T11:50:00;18.40;99.90
14006;DHT22;7078;51.542;7.314;2022-10-16T11:55:21;18.50;99.90
14006;DHT22;7078;51.542;7.314;2022-10-16T11:57:51;18.60;99.90
14006;DHT22;7078;51.542;7.314;2022-10-16T12:00:28;18.80;99.90
14006;DHT22;7078;51.542;7.314;2022-10-16T12:08:35;18.70;99.90
14006;DHT22;7078;51.542;7.314;2022-10-16T12:11:09;18.70;99.90
14006;DHT22;7078;51.542;7.314;2022-10-16T12:13:40;18.80;99.90
14006;DHT22;7078;51.542;7.314;2022-10-16T12:18:41;18.90;99.90
14006;DHT22;7078;51.542;7.314;2022-10-16T12:21:08;19.00;99.90
14006;DHT22;7078;51.542;7.314;2022-10-16T12:23:49;19.10;99.90
14006;DHT22;7078;51.542;7.314;2022-10-16T12:26:27;19.10;99.90
14006;DHT22;7078;51.542;7.314;2022-10-16T12:28:54;19.00;99.90
14006;DHT22;7078;51.542;7.314;2022-10-16T12:31:20;19.00;99.90
14006;DHT22;7078;51.542;7.314;2022-10-16T12:36:30;19.10;99.90
14006;DHT22;7078;51.542;7.314;2022-10-16T12:38:56;18.90;99.90
14006;DHT22;7078;51.542;7.314;2022-10-16T12:41:30;19.00;99.90
14006;DHT22;7078;51.542;7.314;2022-10-16T12:43:57;19.00;99.90
14006;DHT22;7078;51.542;7.314;2022-10-16T12:51:37;19.10;99.90
14006;DHT22;7078;51.542;7.314;2022-10-16T12:54:21;19.10;99.90
14006;DHT22;7078;51.542;7.314;2022-10-16T12:59:34;19.10;99.90
14006;DHT22;7078;51.542;7.314;2022-10-16T13:02:19;19.10;99.90
14006;DHT22;7078;51.542;7.314;2022-10-16T13:19:42;18.90;99.90
14006;DHT22;7078;51.542;7.314;2022-10-16T13:29:52;19.20;99.90
14006;DHT22;7078;51.542;7.314;2022-10-16T13:32:19;19.10;99.90
14006;DHT22;7078;51.542;7.314;2022-10-16T13:34:47;19.10;99.90
14006;DHT22;7078;51.542;7.314;2022-10-16T13:37:21;19.30;99.90
14006;DHT22;7078;51.542;7.314;2022-10-16T13:39:48;19.40;99.90
14006;DHT22;7078;51.542;7.314;2022-10-16T13:42:24;19.40;99.90
14006;DHT22;7078;51.542;7.314;2022-10-16T13:44:52;19.40;99.90
14006;DHT22;7078;51.542;7.314;2022-10-16T13:47:21;19.40;99.90
14006;DHT22;7078;51.542;7.314;2022-10-16T13:49:59;19.40;99.90
14006;DHT22;7078;51.542;7.314;2022-10-16T13:52:25;19.40;99.90
14006;DHT22;7078;51.542;7.314;2022-10-16T13:54:50;19.30;99.90
14006;DHT22;7078;51.542;7.314;2022-10-16T13:57:17;19.20;99.90
14006;DHT22;7078;51.542;7.314;2022-10-16T13:59:43;19.10;99.90
14006;DHT22;7078;51.542;7.314;2022-10-16T14:02:26;19.00;99.90
14006;DHT22;7078;51.542;7.314;2022-10-16T14:04:53;19.00;99.90
14006;DHT22;7078;51.542;7.314;2022-10-16T14:07:28;18.90;99.90
14006;DHT22;7078;51.542;7.314;2022-10-16T14:09:54;18.80;99.90
14006;DHT22;7078;51.542;7.314;2022-10-16T14:12:20;18.90;99.90
14006;DHT22;7078;51.542;7.314;2022-10-16T14:14:51;18.90;99.90
14006;DHT22;7078;51.542;7.314;2022-10-16T14:17:38;18.90;99.90
14006;DHT22;7078;51.542;7.314;2022-10-16T14:20:14;19.10;99.90
14006;DHT22;7078;51.542;7.314;2022-10-16T14:22:41;19.10;99.90
14006;DHT22;7078;51.542;7.314;2022-10-16T14:27:56;19.30;99.90
14006;DHT22;7078;51.542;7.314;2022-10-16T14:30:22;19.40;99.90
14006;DHT22;7078;51.542;7.314;2022-10-16T14:32:58;19.40;99.90
14006;DHT22;7078;51.542;7.314;2022-10-16T14:35:33;19.40;99.90
14006;DHT22;7078;51.542;7.314;2022-10-16T14:38:01;19.20;99.90
14006;DHT22;7078;51.542;7.314;2022-10-16T14:40:38;18.90;99.90
14006;DHT22;7078;51.542;7.314;2022-10-16T14:43:21;18.80;99.90
14006;DHT22;7078;51.542;7.314;2022-10-16T14:45:52;18.60;99.90
14006;DHT22;7078;51.542;7.314;2022-10-16T14:48:19;18.50;99.90
14006;DHT22;7078;51.542;7.314;2022-10-16T14:50:46;18.40;99.90
14006;DHT22;7078;51.542;7.314;2022-10-16T14:53:11;18.30;99.90
14006;DHT22;7078;51.542;7.314;2022-10-16T14:55:40;18.30;99.90
14006;DHT22;7078;51.542;7.314;2022-10-16T14:58:18;18.20;99.90
14006;DHT22;7078;51.542;7.314;2022-10-16T15:00:45;18.30;99.90
14006;DHT22;7078;51.542;7.314;2022-10-16T15:03:11;18.40;99.90
14006;DHT22;7078;51.542;7.314;2022-10-16T15:05:36;18.50;99.90
14006;DHT22;7078;51.542;7.314;2022-10-16T15:08:02;18.60;99.90
14006;DHT22;7078;51.542;7.314;2022-10-16T15:10:30;18.60;99.90
14006;DHT22;7078;51.542;7.314;2022-10-16T15:12:55;18.60;99.90
14006;DHT22;7078;51.542;7.314;2022-10-16T15:15:37;18.60;99.90
14006;DHT22;7078;51.542;7.314;2022-10-16T15:18:03;18.50;99.90
14006;DHT22;7078;51.542;7.314;2022-10-16T15:20:34;18.50;99.90
14006;DHT22;7078;51.542;7.314;2022-10-16T15:23:06;18.30;99.90
14006;DHT22;7078;51.542;7.314;2022-10-16T15:25:45;18.30;99.90
14006;DHT22;7078;51.542;7.314;2022-10-16T15:28:12;18.20;99.90
14006;DHT22;7078;51.542;7.314;2022-10-16T15:30:38;18.10;99.90
14006;DHT22;7078;51.542;7.314;2022-10-16T15:33:05;18.00;99.90
14006;DHT22;7078;51.542;7.314;2022-10-16T15:35:31;18.00;99.90
14006;DHT22;7078;51.542;7.314;2022-10-16T15:37:57;17.90;99.90
14006;DHT22;7078;51.542;7.314;2022-10-16T15:40:23;17.90;99.90
14006;DHT22;7078;51.542;7.314;2022-10-16T15:42:49;17.80;99.90
14006;DHT22;7078;51.542;7.314;2022-10-16T15:45:15;17.70;99.90
14006;DHT22;7078;51.542;7.314;2022-10-16T15:47:41;17.70;99.90
14006;DHT22;7078;51.542;7.314;2022-10-16T15:50:10;17.60;99.90
14006;DHT22;7078;51.542;7.314;2022-10-16T15:52:37;17.50;99.90
14006;DHT22;7078;51.542;7.314;2022-10-16T15:55:05;17.40;99.90
14006;DHT22;7078;51.542;7.314;2022-10-16T15:57:31;17.40;99.90
14006;DHT22;7078;51.542;7.314;2022-10-16T15:59:56;17.30;99.90
14006;DHT22;7078;51.542;7.314;2022-10-16T16:02:22;17.20;99.90
14006;DHT22;7078;51.542;7.314;2022-10-16T16:04:47;17.10;99.90
14006;DHT22;7078;51.542;7.314;2022-10-16T16:07:13;17.10;99.90
14006;DHT22;7078;51.542;7.314;2022-10-16T16:09:38;17.00;99.90
14006;DHT22;7078;51.542;7.314;2022-10-16T16:12:04;17.00;99.90
14006;DHT22;7078;51.542;7.314;2022-10-16T16:14:30;16.90;99.90
14006;DHT22;7078;51.542;7.314;2022-10-16T16:16:56;16.90;99.90
14006;DHT22;7078;51.542;7.314;2022-10-16T16:19:22;16.80;99.90
14006;DHT22;7078;51.542;7.314;2022-10-16T16:21:48;16.80;99.90
14006;DHT22;7078;51.542;7.314;2022-10-16T16:24:14;16.80;99.90
14006;DHT22;7078;51.542;7.314;2022-10-16T16:26:40;16.70;99.90
14006;DHT22;7078;51.542;7.314;2022-10-16T16:29:11;16.70;99.90
14006;DHT22;7078;51.542;7.314;2022-10-16T16:31:39;16.60;99.90
14006;DHT22;7078;51.542;7.314;2022-10-16T16:34:05;16.60;99.90
14006;DHT22;7078;51.542;7.314;2022-10-16T16:36:31;16.50;99.90
14006;DHT22;7078;51.542;7.314;2022-10-16T16:38:57;16.50;99.90
14006;DHT22;7078;51.542;7.314;2022-10-16T16:41:25;16.50;99.90
14006;DHT22;7078;51.542;7.314;2022-10-16T16:43:52;16.50;99.90
14006;DHT22;7078;51.542;7.314;2022-10-16T16:46:18;16.40;99.90
14006;DHT22;7078;51.542;7.314;2022-10-16T16:48:44;16.40;99.90
14006;DHT22;7078;51.542;7.314;2022-10-16T16:51:12;16.30;99.90
14006;DHT22;7078;51.542;7.314;2022-10-16T16:53:41;16.30;99.90
14006;DHT22;7078;51.542;7.314;2022-10-16T16:56:07;16.20;99.90
14006;DHT22;7078;51.542;7.314;2022-10-16T16:58:33;16.20;99.90
14006;DHT22;7078;51.542;7.314;2022-10-16T17:01:00;16.10;99.90
14006;DHT22;7078;51.542;7.314;2022-10-16T17:03:28;16.10;99.90
14006;DHT22;7078;51.542;7.314;2022-10-16T17:05:58;16.00;99.90
14006;DHT22;7078;51.542;7.314;2022-10-16T17:08:24;16.00;99.90
14006;DHT22;7078;51.542;7.314;2022-10-16T17:10:49;15.90;99.90
14006;DHT22;7078;51.542;7.314;2022-10-16T17:13:18;15.90;99.90
14006;DHT22;7078;51.542;7.314;2022-10-16T17:15:48;15.90;99.90
14006;DHT22;7078;51.542;7.314;2022-10-16T17:18:14;15.80;99.90
14006;DHT22;7078;51.542;7.314;2022-10-16T17:20:40;15.80;99.90
14006;DHT22;7078;51.542;7.314;2022-10-16T17:23:06;15.80;99.90
14006;DHT22;7078;51.542;7.314;2022-10-16T17:25:31;15.70;99.90
14006;DHT22;7078;51.542;7.314;2022-10-16T17:27:57;15.70;99.90
14006;DHT22;7078;51.542;7.314;2022-10-16T17:30:25;15.70;99.90
14006;DHT22;7078;51.542;7.314;2022-10-16T17:32:51;15.70;99.90
14006;DHT22;7078;51.542;7.314;2022-10-16T17:35:16;15.60;99.90
14006;DHT22;7078;51.542;7.314;2022-10-16T17:37:42;15.60;99.90
14006;DHT22;7078;51.542;7.314;2022-10-16T17:40:09;15.60;99.90
14006;DHT22;7078;51.542;7.314;2022-10-16T17:42:35;15.60;99.90
14006;DHT22;7078;51.542;7.314;2022-10-16T17:45:00;15.60;99.90
14006;DHT22;7078;51.542;7.314;2022-10-16T17:47:27;15.60;99.90
14006;DHT22;7078;51.542;7.314;2022-10-16T17:49:53;15.60;99.90
14006;DHT22;7078;51.542;7.314;2022-10-16T17:52:19;15.50;99.90
14006;DHT22;7078;51.542;7.314;2022-10-16T17:54:44;15.50;99.90
14006;DHT22;7078;51.542;7.314;2022-10-16T17:57:10;15.50;99.90
14006;DHT22;7078;51.542;7.314;2022-10-16T17:59:36;15.50;99.90